createdAt,value
2023-03-14T01:44:01.941Z,83.75
2023-03-14T01:47:30.923Z,84.94
2023-03-14T01:50:37.617Z,85.63
2023-03-14T01:56:47.562Z,85.73
2023-03-14T01:59:46.529Z,85.79
2023-03-14T02:03:01.739Z,85.35
2023-03-14T02:05:42.990Z,85.18
2023-03-14T02:08:35.490Z,85.02
2023-03-14T02:11:10.371Z,84.71
2023-03-14T02:13:54.006Z,85.12
2023-03-14T02:16:39.871Z,84.87
2023-03-14T02:20:22.991Z,84.61
2023-03-14T02:22:59.209Z,85.03
2023-03-14T02:25:40.033Z,84.88
2023-03-14T02:28:13.351Z,84.41
2023-03-14T02:30:44.068Z,84.15
2023-03-14T02:33:19.549Z,84.03
2023-03-14T02:35:54.857Z,83.79
2023-03-14T02:38:30.318Z,83.58
2023-03-14T02:41:00.090Z,84.26
2023-03-14T02:43:33.782Z,83.58
2023-03-14T02:46:08.795Z,83.89
2023-03-14T02:48:43.413Z,84.56
2023-03-14T02:51:15.311Z,84.14
2023-03-14T02:53:45.657Z,84.02
2023-03-14T02:56:16.917Z,83.89
2023-03-14T02:58:49.884Z,83.99
2023-03-14T03:01:34.263Z,83.91
2023-03-14T03:04:04.592Z,84.12
2023-03-14T03:06:34.796Z,84.09
2023-03-14T03:09:05.241Z,85.25
2023-03-14T03:11:35.541Z,87.55
2023-03-14T03:14:11.250Z,92.21
2023-03-14T03:16:41.127Z,96.37
2023-03-14T03:19:11.370Z,98.35
2023-03-14T03:21:41.014Z,97.66
2023-03-14T03:24:10.704Z,99.09
2023-03-14T03:26:40.689Z,100.00
2023-03-14T03:29:15.439Z,100.00
2023-03-14T03:31:46.534Z,100.00
2023-03-14T03:34:17.165Z,100.00
2023-03-14T03:36:47.728Z,100.00
2023-03-14T03:39:17.898Z,100.00
2023-03-14T03:41:50.639Z,100.00
2023-03-14T03:44:23.352Z,100.00
2023-03-14T03:46:54.704Z,100.00
2023-03-14T03:49:24.757Z,100.00
2023-03-14T03:51:54.719Z,100.00
2023-03-14T03:54:24.456Z,100.00
2023-03-14T03:56:54.395Z,100.00
2023-03-14T03:59:27.075Z,100.00
2023-03-14T04:01:56.936Z,100.00
2023-03-14T04:04:27.316Z,100.00
2023-03-14T04:06:57.066Z,100.00
2023-03-14T04:09:27.250Z,100.00
2023-03-14T04:12:14.419Z,100.00
2023-03-14T04:15:00.340Z,100.00
2023-03-14T04:17:29.995Z,100.00
2023-03-14T04:19:59.680Z,100.00
2023-03-14T04:22:37.142Z,100.00
2023-03-14T04:25:07.845Z,100.00
2023-03-14T04:27:43.146Z,100.00
2023-03-14T04:30:24.046Z,100.00
2023-03-14T04:33:00.915Z,100.00
2023-03-14T04:35:34.710Z,99.91
2023-03-14T04:38:10.216Z,100.00
2023-03-14T04:40:40.879Z,100.00
2023-03-14T04:43:11.868Z,99.51
2023-03-14T04:45:50.416Z,99.26
2023-03-14T04:48:21.277Z,99.35
2023-03-14T04:50:51.806Z,99.77
2023-03-14T04:53:22.750Z,99.70
2023-03-14T04:55:56.254Z,100.00
2023-03-14T04:58:28.132Z,100.00
2023-03-14T05:01:05.729Z,100.00
2023-03-14T05:03:53.726Z,100.00
2023-03-14T05:06:51.580Z,100.00
2023-03-14T05:09:44.271Z,100.00
2023-03-14T05:12:32.463Z,100.00
2023-03-14T05:15:13.007Z,100.00
2023-03-14T05:18:03.802Z,100.00
2023-03-14T05:20:44.947Z,100.00
2023-03-14T05:23:49.598Z,100.00
2023-03-14T05:26:33.667Z,100.00
2023-03-14T05:29:22.487Z,100.00
2023-03-14T05:32:10.953Z,100.00
2023-03-14T05:35:01.908Z,100.00
2023-03-14T05:37:42.761Z,100.00
2023-03-14T05:40:48.625Z,100.00
2023-03-14T05:43:41.130Z,100.00
2023-03-14T05:46:18.988Z,100.00
2023-03-14T05:49:06.081Z,100.00
2023-03-14T05:51:53.845Z,100.00
2023-03-14T05:54:42.395Z,100.00
2023-03-14T05:57:30.582Z,100.00
2023-03-14T06:00:20.382Z,100.00
2023-03-14T06:03:00.294Z,100.00
2023-03-14T06:05:35.383Z,100.00
2023-03-14T06:08:08.966Z,100.00
2023-03-14T06:10:39.284Z,100.00
2023-03-14T06:13:08.952Z,100.00
2023-03-14T06:15:39.105Z,100.00
2023-03-14T06:18:09.175Z,100.00
2023-03-14T06:20:40.653Z,100.00
2023-03-14T06:23:15.605Z,100.00
2023-03-14T06:25:45.545Z,100.00
2023-03-14T06:28:15.372Z,100.00
2023-03-14T06:30:45.544Z,99.87
2023-03-14T06:33:17.934Z,99.90
2023-03-14T06:35:48.447Z,99.60
2023-03-14T06:38:21.980Z,99.23
2023-03-14T06:40:55.801Z,98.76
2023-03-14T06:43:37.939Z,99.60
2023-03-14T06:46:10.515Z,99.45
2023-03-14T06:48:43.557Z,99.03
2023-03-14T06:56:04.296Z,98.21
2023-03-14T07:03:04.515Z,98.67
2023-03-14T07:05:49.984Z,98.26
2023-03-14T07:09:19.154Z,98.33
2023-03-14T07:21:24.302Z,100.00
2023-03-14T07:24:17.765Z,100.00
2023-03-14T07:35:32.851Z,100.00
2023-03-14T07:39:13.345Z,100.00
2023-03-14T07:51:06.637Z,100.00
2023-03-14T08:02:06.827Z,100.00
2023-03-14T08:05:09.753Z,100.00
2023-03-14T08:08:56.915Z,100.00
2023-03-14T08:11:51.692Z,100.00
2023-03-14T08:14:56.029Z,100.00
2023-03-14T08:18:01.003Z,100.00
2023-03-14T08:20:56.495Z,100.00
2023-03-14T08:23:42.942Z,100.00
2023-03-14T08:26:50.874Z,100.00
2023-03-14T08:29:25.212Z,100.00
2023-03-14T08:32:19.920Z,100.00
2023-03-14T08:34:54.720Z,100.00
2023-03-14T08:37:33.582Z,100.00
2023-03-14T08:40:15.495Z,100.00
2023-03-14T08:42:50.899Z,100.00
2023-03-14T08:45:21.385Z,100.00
2023-03-14T08:47:54.302Z,100.00
2023-03-14T08:50:29.536Z,100.00
2023-03-14T08:53:07.038Z,100.00
2023-03-14T08:55:41.635Z,100.00
2023-03-14T08:58:11.849Z,100.00
2023-03-14T09:00:45.080Z,100.00
2023-03-14T09:03:15.589Z,100.00
2023-03-14T09:05:48.117Z,100.00
2023-03-14T09:08:18.004Z,100.00
2023-03-14T09:10:47.808Z,100.00
2023-03-14T09:13:17.498Z,100.00
2023-03-14T09:15:47.205Z,100.00
2023-03-14T09:18:17.207Z,100.00
2023-03-14T09:20:49.446Z,100.00
2023-03-14T09:23:19.433Z,100.00
2023-03-14T09:25:49.114Z,100.00
2023-03-14T09:28:19.086Z,100.00
2023-03-14T09:30:49.304Z,100.00
2023-03-14T09:33:19.315Z,100.00
2023-03-14T09:35:53.046Z,100.00
2023-03-14T09:38:24.493Z,100.00
2023-03-14T09:40:59.737Z,100.00
2023-03-14T09:43:38.152Z,100.00
2023-03-14T09:46:18.667Z,100.00
2023-03-14T09:49:18.799Z,100.00
2023-03-14T09:51:53.778Z,100.00
2023-03-14T09:54:35.076Z,100.00
2023-03-14T09:57:05.701Z,100.00
2023-03-14T09:59:37.488Z,100.00
2023-03-14T10:02:18.058Z,100.00
2023-03-14T10:04:50.127Z,100.00
2023-03-14T10:07:25.644Z,100.00
2023-03-14T10:09:55.640Z,100.00
2023-03-14T10:12:34.646Z,100.00
2023-03-14T10:15:07.880Z,100.00
2023-03-14T10:17:43.936Z,100.00
2023-03-14T10:20:42.794Z,100.00
2023-03-14T10:23:28.564Z,100.00
2023-03-14T10:26:10.707Z,100.00
2023-03-14T10:28:43.730Z,100.00
2023-03-14T10:31:13.762Z,100.00
2023-03-14T10:33:43.472Z,100.00
2023-03-14T10:36:23.487Z,100.00
2023-03-14T10:39:02.123Z,100.00
2023-03-14T10:41:51.813Z,100.00
2023-03-14T10:53:21.099Z,100.00
2023-03-14T11:17:55.246Z,100.00
2023-03-14T14:35:04.067Z,79.68
2023-03-14T14:59:13.230Z,70.00
2023-03-14T15:01:57.066Z,71.69
2023-03-14T15:04:29.836Z,69.07
2023-03-14T15:06:59.754Z,69.40
2023-03-14T15:09:29.520Z,69.39
2023-03-14T15:11:59.127Z,66.71
2023-03-14T15:14:31.375Z,65.95
2023-03-14T15:17:01.126Z,64.22
2023-03-14T15:19:33.560Z,65.73
2023-03-14T15:22:03.222Z,67.25
2023-03-14T15:24:32.954Z,65.10
2023-03-14T15:27:02.723Z,65.71
2023-03-14T15:29:39.690Z,65.74
2023-03-14T15:32:14.922Z,65.88
2023-03-14T15:34:45.061Z,65.48
2023-03-14T15:37:18.334Z,65.57
2023-03-14T15:40:41.709Z,64.75
2023-03-14T15:52:05.105Z,63.94
2023-03-14T19:55:49.926Z,64.16
2023-03-14T20:02:09.266Z,63.87
2023-03-14T20:05:08.433Z,63.55
2023-03-14T20:08:31.915Z,63.80
2023-03-14T20:11:16.449Z,64.59
2023-03-14T20:13:47.517Z,64.22
2023-03-14T20:16:17.737Z,64.55
2023-03-14T20:18:47.637Z,66.05
2023-03-14T20:21:22.119Z,65.07
2023-03-14T20:23:57.502Z,64.66
2023-03-14T20:26:28.752Z,65.28
2023-03-14T20:28:59.198Z,65.83
2023-03-14T20:31:30.319Z,66.20
2023-03-14T20:34:01.658Z,66.48
2023-03-14T20:36:32.016Z,66.93
2023-03-14T20:39:05.638Z,67.46
2023-03-14T20:41:42.135Z,67.50
2023-03-14T20:44:13.818Z,69.04
2023-03-14T20:46:44.265Z,69.44
2023-03-14T20:49:14.858Z,68.96
2023-03-14T20:51:44.778Z,70.07
2023-03-14T20:54:18.140Z,70.55
2023-03-14T20:56:48.689Z,70.89
2023-03-14T20:59:18.699Z,71.84
2023-03-14T21:01:50.515Z,71.47
2023-03-14T21:04:21.570Z,70.67
2023-03-14T21:06:55.315Z,71.77
2023-03-14T21:09:29.297Z,71.82
2023-03-14T21:11:59.436Z,71.76
2023-03-14T21:14:29.804Z,72.00
2023-03-14T21:17:00.726Z,72.35
2023-03-14T21:19:34.410Z,72.06
2023-03-14T21:22:09.080Z,70.83
2023-03-14T21:24:42.184Z,72.07
2023-03-14T21:27:13.085Z,72.48
2023-03-14T21:29:43.673Z,71.43
2023-03-14T21:32:13.483Z,71.41
2023-03-14T21:34:43.223Z,71.23
2023-03-14T21:37:12.860Z,71.41
2023-03-14T21:39:45.198Z,72.27
2023-03-14T21:42:14.869Z,72.37
2023-03-14T21:44:48.611Z,73.12
2023-03-14T21:47:19.617Z,73.51
2023-03-14T21:49:50.279Z,72.83
2023-03-14T21:52:20.336Z,73.65
2023-03-14T21:54:54.519Z,73.99
2023-03-14T21:57:30.286Z,74.41
2023-03-14T22:00:00.505Z,74.70
2023-03-14T22:02:31.102Z,75.42
2023-03-14T22:05:02.329Z,75.50
2023-03-14T22:07:32.613Z,75.83
2023-03-14T22:10:08.479Z,75.66
2023-03-14T22:12:38.748Z,75.99
2023-03-14T22:15:10.543Z,76.56
2023-03-14T22:17:41.502Z,76.11
2023-03-14T22:20:13.948Z,76.00
2023-03-14T22:22:43.839Z,76.38
2023-03-14T22:25:16.219Z,76.32
2023-03-14T22:27:45.884Z,76.72
2023-03-14T22:30:16.241Z,76.66
2023-03-14T22:32:45.920Z,76.29
2023-03-14T22:35:15.559Z,77.13
2023-03-14T22:37:45.194Z,77.12
2023-03-14T22:40:17.816Z,77.48
2023-03-14T22:42:48.401Z,77.63
2023-03-14T22:45:18.196Z,77.65
2023-03-14T22:47:47.911Z,77.40
2023-03-14T22:50:17.804Z,78.63
2023-03-14T22:52:47.432Z,78.90
2023-03-14T22:55:19.933Z,78.92
2023-03-14T22:57:49.707Z,79.15
2023-03-14T23:00:19.924Z,79.42
2023-03-14T23:02:49.906Z,79.99
2023-03-14T23:05:19.820Z,79.99
2023-03-14T23:07:49.481Z,79.33
2023-03-14T23:10:22.751Z,79.79
2023-03-14T23:12:54.323Z,80.36
2023-03-14T23:15:24.283Z,80.47
2023-03-14T23:17:54.123Z,80.46
2023-03-14T23:20:23.802Z,80.69
2023-03-14T23:22:53.617Z,80.92
2023-03-14T23:25:25.876Z,81.33
2023-03-14T23:27:55.562Z,82.22
2023-03-14T23:30:25.356Z,82.14
2023-03-14T23:32:55.063Z,82.81
2023-03-14T23:35:24.950Z,81.91
2023-03-14T23:37:54.571Z,81.68
2023-03-14T23:40:26.873Z,81.82
2023-03-14T23:42:56.541Z,82.25
2023-03-14T23:45:26.482Z,83.22
2023-03-14T23:47:57.832Z,83.17
2023-03-14T23:50:27.628Z,82.87
2023-03-14T23:52:57.322Z,81.93
2023-03-14T23:55:29.505Z,82.91
2023-03-14T23:57:59.192Z,82.89
